sensor_id;sensor_type;location;lat;lon;timestamp;P1;durP1;ratioP1;P2;durP2;ratioP2
21330;SDS011;10824;51.632;4.950;2023-09-30T00:02:03;6.45;;;2.42;;
21330;SDS011;10824;51.632;4.950;2023-09-30T00:04:31;8.90;;;3.20;;
21330;SDS011;10824;51.632;4.950;2023-09-30T00:06:58;5.18;;;2.40;;
21330;SDS011;10824;51.632;4.950;2023-09-30T00:09:26;7.93;;;2.70;;
21330;SDS011;10824;51.632;4.950;2023-09-30T00:11:53;6.68;;;2.60;;
21330;SDS011;10824;51.632;4.950;2023-09-30T00:14:21;9.63;;;3.47;;
21330;SDS011;10824;51.632;4.950;2023-09-30T00:16:49;7.32;;;3.13;;
21330;SDS011;10824;51.632;4.950;2023-09-30T00:19:17;6.85;;;3.20;;
21330;SDS011;10824;51.632;4.950;2023-09-30T00:21:44;9.48;;;2.80;;
21330;SDS011;10824;51.632;4.950;2023-09-30T00:24:12;4.78;;;3.38;;
21330;SDS011;10824;51.632;4.950;2023-09-30T00:26:39;6.57;;;2.75;;
21330;SDS011;10824;51.632;4.950;2023-09-30T00:29:07;7.18;;;2.80;;
21330;SDS011;10824;51.632;4.950;2023-09-30T00:31:34;5.78;;;3.25;;
21330;SDS011;10824;51.632;4.950;2023-09-30T00:34:01;7.25;;;3.03;;
21330;SDS011;10824;51.632;4.950;2023-09-30T00:36:28;9.27;;;3.13;;
21330;SDS011;10824;51.632;4.950;2023-09-30T00:38:55;6.70;;;2.88;;
21330;SDS011;10824;51.632;4.950;2023-09-30T00:41:23;4.38;;;2.83;;
21330;SDS011;10824;51.632;4.950;2023-09-30T00:43:50;8.45;;;3.00;;
21330;SDS011;10824;51.632;4.950;2023-09-30T00:48:58;9.05;;;3.30;;
21330;SDS011;10824;51.632;4.950;2023-09-30T00:51:27;6.10;;;2.67;;
21330;SDS011;10824;51.632;4.950;2023-09-30T00:53:56;3.55;;;2.10;;
21330;SDS011;10824;51.632;4.950;2023-09-30T00:56:27;5.18;;;2.60;;
21330;SDS011;10824;51.632;4.950;2023-09-30T00:58:56;11.57;;;2.90;;
21330;SDS011;10824;51.632;4.950;2023-09-30T01:01:25;7.82;;;2.85;;
21330;SDS011;10824;51.632;4.950;2023-09-30T01:03:53;7.65;;;2.90;;
21330;SDS011;10824;51.632;4.950;2023-09-30T01:06:21;5.35;;;2.67;;
21330;SDS011;10824;51.632;4.950;2023-09-30T01:08:48;5.45;;;2.53;;
21330;SDS011;10824;51.632;4.950;2023-09-30T01:11:16;10.90;;;3.47;;
21330;SDS011;10824;51.632;4.950;2023-09-30T01:13:43;4.03;;;3.00;;
21330;SDS011;10824;51.632;4.950;2023-09-30T01:16:11;8.07;;;2.70;;
21330;SDS011;10824;51.632;4.950;2023-09-30T01:18:39;5.82;;;3.13;;
21330;SDS011;10824;51.632;4.950;2023-09-30T01:21:09;5.55;;;2.80;;
21330;SDS011;10824;51.632;4.950;2023-09-30T01:23:40;6.10;;;2.47;;
21330;SDS011;10824;51.632;4.950;2023-09-30T01:26:11;5.45;;;3.00;;
21330;SDS011;10824;51.632;4.950;2023-09-30T01:28:39;4.45;;;2.60;;
21330;SDS011;10824;51.632;4.950;2023-09-30T01:31:06;6.35;;;2.63;;
21330;SDS011;10824;51.632;4.950;2023-09-30T01:33:34;7.22;;;3.25;;
21330;SDS011;10824;51.632;4.950;2023-09-30T01:36:02;7.13;;;3.63;;
21330;SDS011;10824;51.632;4.950;2023-09-30T01:38:30;7.22;;;3.67;;
21330;SDS011;10824;51.632;4.950;2023-09-30T01:40:58;7.85;;;4.00;;
21330;SDS011;10824;51.632;4.950;2023-09-30T01:43:27;8.88;;;2.90;;
21330;SDS011;10824;51.632;4.950;2023-09-30T01:45:55;6.75;;;2.97;;
21330;SDS011;10824;51.632;4.950;2023-09-30T01:48:22;6.47;;;3.10;;
21330;SDS011;10824;51.632;4.950;2023-09-30T01:50:49;6.60;;;2.95;;
21330;SDS011;10824;51.632;4.950;2023-09-30T01:53:18;5.93;;;2.90;;
21330;SDS011;10824;51.632;4.950;2023-09-30T01:55:45;8.65;;;2.92;;
21330;SDS011;10824;51.632;4.950;2023-09-30T01:58:12;7.97;;;2.70;;
21330;SDS011;10824;51.632;4.950;2023-09-30T02:00:39;8.07;;;3.60;;
21330;SDS011;10824;51.632;4.950;2023-09-30T02:03:06;6.38;;;3.05;;
21330;SDS011;10824;51.632;4.950;2023-09-30T02:05:34;6.68;;;3.33;;
21330;SDS011;10824;51.632;4.950;2023-09-30T02:08:03;24.73;;;3.78;;
21330;SDS011;10824;51.632;4.950;2023-09-30T02:10:32;3.67;;;2.50;;
21330;SDS011;10824;51.632;4.950;2023-09-30T02:13:00;6.47;;;2.90;;
21330;SDS011;10824;51.632;4.950;2023-09-30T02:15:28;6.20;;;2.92;;
21330;SDS011;10824;51.632;4.950;2023-09-30T02:17:55;7.57;;;3.58;;
21330;SDS011;10824;51.632;4.950;2023-09-30T02:20:22;12.05;;;4.32;;
21330;SDS011;10824;51.632;4.950;2023-09-30T02:22:52;8.73;;;3.17;;
21330;SDS011;10824;51.632;4.950;2023-09-30T02:25:20;8.15;;;3.80;;
21330;SDS011;10824;51.632;4.950;2023-09-30T02:27:49;7.53;;;3.72;;
21330;SDS011;10824;51.632;4.950;2023-09-30T02:30:17;4.70;;;2.60;;
21330;SDS011;10824;51.632;4.950;2023-09-30T02:32:45;6.07;;;2.63;;
21330;SDS011;10824;51.632;4.950;2023-09-30T02:35:13;10.90;;;4.10;;
21330;SDS011;10824;51.632;4.950;2023-09-30T02:37:42;6.88;;;3.22;;
21330;SDS011;10824;51.632;4.950;2023-09-30T02:40:09;6.55;;;3.38;;
21330;SDS011;10824;51.632;4.950;2023-09-30T02:42:38;6.75;;;3.45;;
21330;SDS011;10824;51.632;4.950;2023-09-30T02:45:07;9.48;;;3.30;;
21330;SDS011;10824;51.632;4.950;2023-09-30T02:47:35;6.57;;;3.08;;
21330;SDS011;10824;51.632;4.950;2023-09-30T02:50:07;6.20;;;3.08;;
21330;SDS011;10824;51.632;4.950;2023-09-30T02:52:38;17.13;;;5.35;;
21330;SDS011;10824;51.632;4.950;2023-09-30T02:55:11;5.70;;;3.17;;
21330;SDS011;10824;51.632;4.950;2023-09-30T02:57:38;6.55;;;3.55;;
21330;SDS011;10824;51.632;4.950;2023-09-30T03:00:08;7.40;;;3.47;;
21330;SDS011;10824;51.632;4.950;2023-09-30T03:02:53;7.18;;;4.15;;
21330;SDS011;10824;51.632;4.950;2023-09-30T03:05:22;13.07;;;3.67;;
21330;SDS011;10824;51.632;4.950;2023-09-30T03:07:50;10.98;;;3.30;;
21330;SDS011;10824;51.632;4.950;2023-09-30T03:10:17;7.20;;;3.95;;
21330;SDS011;10824;51.632;4.950;2023-09-30T03:12:50;6.47;;;3.80;;
21330;SDS011;10824;51.632;4.950;2023-09-30T03:15:18;7.20;;;3.50;;
21330;SDS011;10824;51.632;4.950;2023-09-30T03:17:46;4.20;;;3.05;;
21330;SDS011;10824;51.632;4.950;2023-09-30T03:20:17;9.73;;;4.28;;
21330;SDS011;10824;51.632;4.950;2023-09-30T03:22:46;5.70;;;2.78;;
21330;SDS011;10824;51.632;4.950;2023-09-30T03:25:15;8.93;;;4.28;;
21330;SDS011;10824;51.632;4.950;2023-09-30T03:27:44;9.63;;;4.18;;
21330;SDS011;10824;51.632;4.950;2023-09-30T03:30:15;5.55;;;3.28;;
21330;SDS011;10824;51.632;4.950;2023-09-30T03:32:43;6.15;;;3.22;;
21330;SDS011;10824;51.632;4.950;2023-09-30T03:35:11;12.13;;;3.60;;
21330;SDS011;10824;51.632;4.950;2023-09-30T03:37:44;8.98;;;4.18;;
21330;SDS011;10824;51.632;4.950;2023-09-30T03:40:14;7.55;;;3.55;;
21330;SDS011;10824;51.632;4.950;2023-09-30T03:42:47;7.55;;;3.70;;
21330;SDS011;10824;51.632;4.950;2023-09-30T03:45:17;5.32;;;3.45;;
21330;SDS011;10824;51.632;4.950;2023-09-30T03:47:45;8.20;;;3.58;;
21330;SDS011;10824;51.632;4.950;2023-09-30T03:50:14;10.40;;;3.50;;
21330;SDS011;10824;51.632;4.950;2023-09-30T03:52:42;7.80;;;3.47;;
21330;SDS011;10824;51.632;4.950;2023-09-30T03:55:14;9.38;;;4.40;;
21330;SDS011;10824;51.632;4.950;2023-09-30T03:57:47;10.00;;;3.10;;
21330;SDS011;10824;51.632;4.950;2023-09-30T04:00:20;6.50;;;3.03;;
21330;SDS011;10824;51.632;4.950;2023-09-30T04:02:48;6.60;;;3.08;;
21330;SDS011;10824;51.632;4.950;2023-09-30T04:05:17;5.65;;;3.17;;
21330;SDS011;10824;51.632;4.950;2023-09-30T04:07:46;7.72;;;3.22;;
21330;SDS011;10824;51.632;4.950;2023-09-30T04:10:23;9.68;;;4.85;;
21330;SDS011;10824;51.632;4.950;2023-09-30T04:12:53;14.35;;;3.83;;
21330;SDS011;10824;51.632;4.950;2023-09-30T04:15:20;6.65;;;3.08;;
21330;SDS011;10824;51.632;4.950;2023-09-30T04:17:48;5.88;;;3.03;;
21330;SDS011;10824;51.632;4.950;2023-09-30T04:20:15;6.43;;;2.55;;
21330;SDS011;10824;51.632;4.950;2023-09-30T04:22:44;13.38;;;4.43;;
21330;SDS011;10824;51.632;4.950;2023-09-30T04:25:16;10.43;;;3.85;;
21330;SDS011;10824;51.632;4.950;2023-09-30T04:27:43;6.28;;;2.95;;
21330;SDS011;10824;51.632;4.950;2023-09-30T04:30:11;12.23;;;3.60;;
21330;SDS011;10824;51.632;4.950;2023-09-30T04:32:39;8.13;;;3.67;;
21330;SDS011;10824;51.632;4.950;2023-09-30T04:35:06;5.85;;;3.70;;
21330;SDS011;10824;51.632;4.950;2023-09-30T04:37:37;9.18;;;3.53;;
21330;SDS011;10824;51.632;4.950;2023-09-30T04:40:04;12.23;;;3.80;;
21330;SDS011;10824;51.632;4.950;2023-09-30T04:43:01;10.35;;;4.43;;
21330;SDS011;10824;51.632;4.950;2023-09-30T04:45:29;9.90;;;4.20;;
21330;SDS011;10824;51.632;4.950;2023-09-30T04:47:56;8.07;;;4.28;;
21330;SDS011;10824;51.632;4.950;2023-09-30T04:50:23;15.18;;;4.93;;
21330;SDS011;10824;51.632;4.950;2023-09-30T04:52:50;7.35;;;3.75;;
21330;SDS011;10824;51.632;4.950;2023-09-30T04:55:18;11.05;;;4.43;;
21330;SDS011;10824;51.632;4.950;2023-09-30T04:57:47;10.02;;;3.80;;
21330;SDS011;10824;51.632;4.950;2023-09-30T05:00:15;6.78;;;3.83;;
21330;SDS011;10824;51.632;4.950;2023-09-30T05:02:47;5.72;;;3.20;;
21330;SDS011;10824;51.632;4.950;2023-09-30T05:05:14;6.47;;;3.55;;
21330;SDS011;10824;51.632;4.950;2023-09-30T05:07:42;10.23;;;3.50;;
21330;SDS011;10824;51.632;4.950;2023-09-30T05:10:10;24.40;;;5.30;;
21330;SDS011;10824;51.632;4.950;2023-09-30T05:12:40;9.23;;;4.00;;
21330;SDS011;10824;51.632;4.950;2023-09-30T05:15:15;8.40;;;4.38;;
21330;SDS011;10824;51.632;4.950;2023-09-30T05:17:43;7.82;;;3.15;;
21330;SDS011;10824;51.632;4.950;2023-09-30T05:20:11;11.02;;;4.07;;
21330;SDS011;10824;51.632;4.950;2023-09-30T05:22:39;10.80;;;3.50;;
21330;SDS011;10824;51.632;4.950;2023-09-30T05:25:13;12.20;;;4.90;;
21330;SDS011;10824;51.632;4.950;2023-09-30T05:27:43;6.93;;;3.72;;
21330;SDS011;10824;51.632;4.950;2023-09-30T05:30:11;6.03;;;2.88;;
21330;SDS011;10824;51.632;4.950;2023-09-30T05:32:42;7.35;;;4.65;;
21330;SDS011;10824;51.632;4.950;2023-09-30T05:35:09;8.48;;;3.35;;
21330;SDS011;10824;51.632;4.950;2023-09-30T05:37:40;8.23;;;4.45;;
21330;SDS011;10824;51.632;4.950;2023-09-30T05:40:08;9.68;;;4.18;;
21330;SDS011;10824;51.632;4.950;2023-09-30T05:42:50;8.43;;;3.58;;
21330;SDS011;10824;51.632;4.950;2023-09-30T05:45:18;8.68;;;2.95;;
21330;SDS011;10824;51.632;4.950;2023-09-30T05:47:51;8.00;;;4.22;;
21330;SDS011;10824;51.632;4.950;2023-09-30T05:50:19;9.73;;;4.40;;
21330;SDS011;10824;51.632;4.950;2023-09-30T05:52:55;10.18;;;4.28;;
21330;SDS011;10824;51.632;4.950;2023-09-30T05:55:23;8.20;;;3.97;;
21330;SDS011;10824;51.632;4.950;2023-09-30T05:57:52;8.48;;;3.75;;
21330;SDS011;10824;51.632;4.950;2023-09-30T06:00:21;5.65;;;3.30;;
21330;SDS011;10824;51.632;4.950;2023-09-30T06:02:57;7.35;;;3.97;;
21330;SDS011;10824;51.632;4.950;2023-09-30T06:05:25;6.72;;;3.63;;
21330;SDS011;10824;51.632;4.950;2023-09-30T06:07:53;7.57;;;4.32;;
21330;SDS011;10824;51.632;4.950;2023-09-30T06:10:22;7.32;;;3.28;;
21330;SDS011;10824;51.632;4.950;2023-09-30T06:12:51;7.68;;;4.07;;
21330;SDS011;10824;51.632;4.950;2023-09-30T06:15:23;6.32;;;3.67;;
21330;SDS011;10824;51.632;4.950;2023-09-30T06:20:24;7.40;;;3.80;;
21330;SDS011;10824;51.632;4.950;2023-09-30T06:22:59;7.03;;;3.28;;
21330;SDS011;10824;51.632;4.950;2023-09-30T06:25:39;6.28;;;3.30;;
21330;SDS011;10824;51.632;4.950;2023-09-30T06:28:15;10.38;;;4.15;;
21330;SDS011;10824;51.632;4.950;2023-09-30T06:34:50;7.70;;;4.35;;
21330;SDS011;10824;51.632;4.950;2023-09-30T06:37:18;7.00;;;3.17;;
21330;SDS011;10824;51.632;4.950;2023-09-30T06:39:47;8.90;;;4.07;;
21330;SDS011;10824;51.632;4.950;2023-09-30T06:42:15;6.70;;;3.47;;
21330;SDS011;10824;51.632;4.950;2023-09-30T06:44:42;8.02;;;4.07;;
21330;SDS011;10824;51.632;4.950;2023-09-30T06:47:09;6.43;;;3.80;;
21330;SDS011;10824;51.632;4.950;2023-09-30T06:49:38;7.57;;;3.50;;
21330;SDS011;10824;51.632;4.950;2023-09-30T06:52:06;11.77;;;5.30;;
21330;SDS011;10824;51.632;4.950;2023-09-30T06:54:33;8.13;;;3.53;;
21330;SDS011;10824;51.632;4.950;2023-09-30T06:57:01;8.02;;;3.60;;
21330;SDS011;10824;51.632;4.950;2023-09-30T06:59:28;6.47;;;3.90;;
21330;SDS011;10824;51.632;4.950;2023-09-30T07:01:55;14.48;;;5.20;;
21330;SDS011;10824;51.632;4.950;2023-09-30T07:04:24;7.55;;;3.75;;
21330;SDS011;10824;51.632;4.950;2023-09-30T07:06:53;7.38;;;3.70;;
21330;SDS011;10824;51.632;4.950;2023-09-30T07:09:20;9.50;;;4.38;;
21330;SDS011;10824;51.632;4.950;2023-09-30T07:11:47;11.88;;;4.85;;
21330;SDS011;10824;51.632;4.950;2023-09-30T07:14:16;11.23;;;5.18;;
21330;SDS011;10824;51.632;4.950;2023-09-30T07:16:43;10.20;;;5.03;;
21330;SDS011;10824;51.632;4.950;2023-09-30T07:19:10;10.25;;;5.00;;
21330;SDS011;10824;51.632;4.950;2023-09-30T07:21:37;10.20;;;4.55;;
21330;SDS011;10824;51.632;4.950;2023-09-30T07:24:04;12.32;;;4.50;;
21330;SDS011;10824;51.632;4.950;2023-09-30T07:26:32;13.00;;;5.07;;
21330;SDS011;10824;51.632;4.950;2023-09-30T07:28:59;15.43;;;5.20;;
21330;SDS011;10824;51.632;4.950;2023-09-30T07:31:26;12.95;;;4.93;;
21330;SDS011;10824;51.632;4.950;2023-09-30T07:33:53;15.52;;;5.82;;
21330;SDS011;10824;51.632;4.950;2023-09-30T07:36:21;12.93;;;4.95;;
21330;SDS011;10824;51.632;4.950;2023-09-30T07:38:48;13.95;;;5.18;;
21330;SDS011;10824;51.632;4.950;2023-09-30T07:41:15;12.43;;;5.57;;
21330;SDS011;10824;51.632;4.950;2023-09-30T07:43:43;12.57;;;5.60;;
21330;SDS011;10824;51.632;4.950;2023-09-30T07:46:11;13.93;;;6.50;;
21330;SDS011;10824;51.632;4.950;2023-09-30T07:48:38;13.13;;;5.82;;
21330;SDS011;10824;51.632;4.950;2023-09-30T07:51:06;12.95;;;7.28;;
21330;SDS011;10824;51.632;4.950;2023-09-30T07:53:39;17.70;;;7.25;;
21330;SDS011;10824;51.632;4.950;2023-09-30T07:56:09;17.02;;;7.95;;
21330;SDS011;10824;51.632;4.950;2023-09-30T07:58:36;24.17;;;7.85;;
21330;SDS011;10824;51.632;4.950;2023-09-30T08:01:03;26.30;;;10.98;;
21330;SDS011;10824;51.632;4.950;2023-09-30T08:03:30;22.65;;;10.05;;
21330;SDS011;10824;51.632;4.950;2023-09-30T08:05:58;21.88;;;10.02;;
21330;SDS011;10824;51.632;4.950;2023-09-30T08:08:25;31.55;;;10.35;;
21330;SDS011;10824;51.632;4.950;2023-09-30T08:10:52;23.50;;;8.75;;
21330;SDS011;10824;51.632;4.950;2023-09-30T08:13:22;24.77;;;9.45;;
21330;SDS011;10824;51.632;4.950;2023-09-30T08:15:50;24.80;;;10.90;;
21330;SDS011;10824;51.632;4.950;2023-09-30T08:18:18;19.35;;;9.18;;
21330;SDS011;10824;51.632;4.950;2023-09-30T08:20:45;22.00;;;9.73;;
21330;SDS011;10824;51.632;4.950;2023-09-30T08:23:12;31.08;;;10.82;;
21330;SDS011;10824;51.632;4.950;2023-09-30T08:25:39;24.58;;;9.95;;
21330;SDS011;10824;51.632;4.950;2023-09-30T08:28:06;18.52;;;9.40;;
21330;SDS011;10824;51.632;4.950;2023-09-30T08:30:36;22.55;;;8.88;;
21330;SDS011;10824;51.632;4.950;2023-09-30T08:33:04;23.30;;;10.88;;
21330;SDS011;10824;51.632;4.950;2023-09-30T08:35:38;20.17;;;9.32;;
21330;SDS011;10824;51.632;4.950;2023-09-30T08:38:06;16.88;;;8.55;;
21330;SDS011;10824;51.632;4.950;2023-09-30T08:40:33;21.42;;;7.28;;
21330;SDS011;10824;51.632;4.950;2023-09-30T08:43:00;22.17;;;9.15;;
21330;SDS011;10824;51.632;4.950;2023-09-30T08:45:31;22.15;;;8.32;;
21330;SDS011;10824;51.632;4.950;2023-09-30T08:48:06;17.85;;;9.60;;
21330;SDS011;10824;51.632;4.950;2023-09-30T08:50:35;25.45;;;8.93;;
21330;SDS011;10824;51.632;4.950;2023-09-30T08:53:08;18.23;;;8.38;;
21330;SDS011;10824;51.632;4.950;2023-09-30T08:55:37;19.33;;;8.23;;
21330;SDS011;10824;51.632;4.950;2023-09-30T08:58:06;20.52;;;8.65;;
21330;SDS011;10824;51.632;4.950;2023-09-30T09:00:33;18.83;;;8.18;;
21330;SDS011;10824;51.632;4.950;2023-09-30T09:03:00;23.25;;;10.25;;
21330;SDS011;10824;51.632;4.950;2023-09-30T09:05:29;13.35;;;7.82;;
21330;SDS011;10824;51.632;4.950;2023-09-30T09:07:56;19.70;;;9.13;;
21330;SDS011;10824;51.632;4.950;2023-09-30T09:10:23;17.65;;;8.20;;
21330;SDS011;10824;51.632;4.950;2023-09-30T09:12:54;20.38;;;8.00;;
21330;SDS011;10824;51.632;4.950;2023-09-30T09:15:27;23.75;;;10.57;;
21330;SDS011;10824;51.632;4.950;2023-09-30T09:17:56;21.67;;;9.50;;
21330;SDS011;10824;51.632;4.950;2023-09-30T09:20:24;22.70;;;10.35;;
21330;SDS011;10824;51.632;4.950;2023-09-30T09:22:55;21.30;;;9.95;;
21330;SDS011;10824;51.632;4.950;2023-09-30T09:25:24;32.70;;;11.90;;
21330;SDS011;10824;51.632;4.950;2023-09-30T09:27:52;23.42;;;9.93;;
21330;SDS011;10824;51.632;4.950;2023-09-30T09:30:25;19.33;;;9.52;;
21330;SDS011;10824;51.632;4.950;2023-09-30T09:33:05;27.10;;;12.82;;
21330;SDS011;10824;51.632;4.950;2023-09-30T09:35:34;23.65;;;10.75;;
21330;SDS011;10824;51.632;4.950;2023-09-30T09:38:03;23.88;;;10.98;;
21330;SDS011;10824;51.632;4.950;2023-09-30T09:40:32;27.10;;;10.40;;
21330;SDS011;10824;51.632;4.950;2023-09-30T09:43:07;22.75;;;9.50;;
21330;SDS011;10824;51.632;4.950;2023-09-30T09:45:36;24.73;;;11.50;;
21330;SDS011;10824;51.632;4.950;2023-09-30T09:48:04;23.17;;;12.05;;
21330;SDS011;10824;51.632;4.950;2023-09-30T09:50:32;27.10;;;11.52;;
21330;SDS011;10824;51.632;4.950;2023-09-30T09:53:02;28.08;;;11.57;;
21330;SDS011;10824;51.632;4.950;2023-09-30T09:55:32;24.75;;;12.18;;
21330;SDS011;10824;51.632;4.950;2023-09-30T09:58:00;29.38;;;11.70;;
21330;SDS011;10824;51.632;4.950;2023-09-30T10:00:30;21.25;;;10.32;;
21330;SDS011;10824;51.632;4.950;2023-09-30T10:02:58;28.13;;;12.63;;
21330;SDS011;10824;51.632;4.950;2023-09-30T10:05:25;27.70;;;11.00;;
21330;SDS011;10824;51.632;4.950;2023-09-30T10:08:00;23.92;;;10.30;;
21330;SDS011;10824;51.632;4.950;2023-09-30T10:10:35;24.02;;;10.88;;
21330;SDS011;10824;51.632;4.950;2023-09-30T10:13:03;24.27;;;10.40;;
21330;SDS011;10824;51.632;4.950;2023-09-30T10:18:10;27.70;;;11.00;;
21330;SDS011;10824;51.632;4.950;2023-09-30T10:20:42;23.77;;;10.73;;
21330;SDS011;10824;51.632;4.950;2023-09-30T10:23:23;18.77;;;9.52;;
21330;SDS011;10824;51.632;4.950;2023-09-30T10:25:53;23.77;;;9.88;;
21330;SDS011;10824;51.632;4.950;2023-09-30T10:28:42;22.70;;;10.00;;
21330;SDS011;10824;51.632;4.950;2023-09-30T10:31:20;23.35;;;10.27;;
21330;SDS011;10824;51.632;4.950;2023-09-30T10:36:29;25.05;;;11.02;;
21330;SDS011;10824;51.632;4.950;2023-09-30T10:39:01;22.83;;;8.75;;
21330;SDS011;10824;51.632;4.950;2023-09-30T10:46:53;19.33;;;8.07;;
21330;SDS011;10824;51.632;4.950;2023-09-30T10:51:53;23.13;;;9.10;;
21330;SDS011;10824;51.632;4.950;2023-09-30T10:54:23;15.68;;;7.22;;
21330;SDS011;10824;51.632;4.950;2023-09-30T10:56:55;18.65;;;8.57;;
21330;SDS011;10824;51.632;4.950;2023-09-30T10:59:27;17.27;;;6.93;;
21330;SDS011;10824;51.632;4.950;2023-09-30T11:01:58;18.27;;;8.25;;
21330;SDS011;10824;51.632;4.950;2023-09-30T11:04:26;13.40;;;6.47;;
21330;SDS011;10824;51.632;4.950;2023-09-30T11:06:56;17.52;;;7.05;;
21330;SDS011;10824;51.632;4.950;2023-09-30T11:09:25;17.63;;;7.43;;
21330;SDS011;10824;51.632;4.950;2023-09-30T11:11:53;15.70;;;7.43;;
21330;SDS011;10824;51.632;4.950;2023-09-30T11:14:30;12.10;;;5.53;;
21330;SDS011;10824;51.632;4.950;2023-09-30T11:16:58;10.98;;;5.47;;
21330;SDS011;10824;51.632;4.950;2023-09-30T11:19:45;12.93;;;6.85;;
21330;SDS011;10824;51.632;4.950;2023-09-30T11:22:14;14.70;;;6.25;;
21330;SDS011;10824;51.632;4.950;2023-09-30T11:24:42;13.23;;;5.88;;
21330;SDS011;10824;51.632;4.950;2023-09-30T11:27:09;10.55;;;5.07;;
21330;SDS011;10824;51.632;4.950;2023-09-30T11:29:36;10.50;;;4.15;;
21330;SDS011;10824;51.632;4.950;2023-09-30T11:32:03;12.52;;;5.57;;
21330;SDS011;10824;51.632;4.950;2023-09-30T11:34:31;10.40;;;5.28;;
21330;SDS011;10824;51.632;4.950;2023-09-30T11:37:00;8.40;;;3.78;;
21330;SDS011;10824;51.632;4.950;2023-09-30T11:39:28;9.52;;;4.55;;
21330;SDS011;10824;51.632;4.950;2023-09-30T11:41:57;8.48;;;4.13;;
21330;SDS011;10824;51.632;4.950;2023-09-30T11:44:24;6.93;;;2.95;;
21330;SDS011;10824;51.632;4.950;2023-09-30T11:46:58;4.93;;;2.10;;
21330;SDS011;10824;51.632;4.950;2023-09-30T11:49:37;4.75;;;1.98;;
21330;SDS011;10824;51.632;4.950;2023-09-30T11:52:09;2.95;;;1.98;;
21330;SDS011;10824;51.632;4.950;2023-09-30T11:54:39;5.43;;;2.13;;
21330;SDS011;10824;51.632;4.950;2023-09-30T11:57:10;3.85;;;1.63;;
21330;SDS011;10824;51.632;4.950;2023-09-30T11:59:42;4.55;;;1.75;;
21330;SDS011;10824;51.632;4.950;2023-09-30T12:02:13;4.07;;;2.15;;
21330;SDS011;10824;51.632;4.950;2023-09-30T12:04:44;4.40;;;2.15;;
21330;SDS011;10824;51.632;4.950;2023-09-30T12:07:14;8.43;;;2.75;;
21330;SDS011;10824;51.632;4.950;2023-09-30T12:09:41;6.47;;;2.20;;
21330;SDS011;10824;51.632;4.950;2023-09-30T12:12:09;7.90;;;2.20;;
21330;SDS011;10824;51.632;4.950;2023-09-30T12:14:38;6.13;;;1.92;;
21330;SDS011;10824;51.632;4.950;2023-09-30T12:17:06;5.72;;;1.40;;
21330;SDS011;10824;51.632;4.950;2023-09-30T12:19:39;9.05;;;2.47;;
21330;SDS011;10824;51.632;4.950;2023-09-30T12:22:08;3.63;;;1.95;;
21330;SDS011;10824;51.632;4.950;2023-09-30T12:24:36;4.25;;;2.10;;
21330;SDS011;10824;51.632;4.950;2023-09-30T12:27:03;3.25;;;1.55;;
21330;SDS011;10824;51.632;4.950;2023-09-30T12:29:32;5.70;;;1.55;;
21330;SDS011;10824;51.632;4.950;2023-09-30T12:31:59;5.55;;;1.92;;
21330;SDS011;10824;51.632;4.950;2023-09-30T12:34:28;4.32;;;1.40;;
21330;SDS011;10824;51.632;4.950;2023-09-30T12:36:55;5.20;;;2.17;;
21330;SDS011;10824;51.632;4.950;2023-09-30T12:39:24;3.95;;;1.50;;
21330;SDS011;10824;51.632;4.950;2023-09-30T12:41:53;4.18;;;1.92;;
21330;SDS011;10824;51.632;4.950;2023-09-30T12:44:21;2.20;;;1.40;;
21330;SDS011;10824;51.632;4.950;2023-09-30T12:46:49;8.98;;;1.77;;
21330;SDS011;10824;51.632;4.950;2023-09-30T12:49:17;4.78;;;1.85;;
21330;SDS011;10824;51.632;4.950;2023-09-30T12:51:45;7.53;;;2.05;;
21330;SDS011;10824;51.632;4.950;2023-09-30T12:54:15;7.68;;;1.55;;
21330;SDS011;10824;51.632;4.950;2023-09-30T12:56:45;8.48;;;1.95;;
21330;SDS011;10824;51.632;4.950;2023-09-30T12:59:14;7.55;;;2.17;;
21330;SDS011;10824;51.632;4.950;2023-09-30T13:01:47;6.05;;;1.88;;
21330;SDS011;10824;51.632;4.950;2023-09-30T13:06:50;5.18;;;3.47;;
21330;SDS011;10824;51.632;4.950;2023-09-30T13:09:22;3.22;;;1.50;;
21330;SDS011;10824;51.632;4.950;2023-09-30T13:11:50;3.92;;;1.52;;
21330;SDS011;10824;51.632;4.950;2023-09-30T13:14:17;4.85;;;2.13;;
21330;SDS011;10824;51.632;4.950;2023-09-30T13:16:44;5.20;;;2.22;;
21330;SDS011;10824;51.632;4.950;2023-09-30T13:19:11;5.80;;;1.58;;
21330;SDS011;10824;51.632;4.950;2023-09-30T13:21:41;5.05;;;1.67;;
21330;SDS011;10824;51.632;4.950;2023-09-30T13:24:09;5.13;;;1.98;;
21330;SDS011;10824;51.632;4.950;2023-09-30T13:26:36;7.68;;;2.15;;
21330;SDS011;10824;51.632;4.950;2023-09-30T13:29:04;4.95;;;1.98;;
21330;SDS011;10824;51.632;4.950;2023-09-30T13:31:34;5.82;;;2.05;;
21330;SDS011;10824;51.632;4.950;2023-09-30T13:34:05;3.15;;;1.95;;
21330;SDS011;10824;51.632;4.950;2023-09-30T13:36:32;4.22;;;1.77;;
21330;SDS011;10824;51.632;4.950;2023-09-30T13:38:59;4.13;;;2.08;;
21330;SDS011;10824;51.632;4.950;2023-09-30T13:41:27;7.45;;;1.95;;
21330;SDS011;10824;51.632;4.950;2023-09-30T13:43:54;4.18;;;1.92;;
21330;SDS011;10824;51.632;4.950;2023-09-30T13:46:24;6.25;;;1.48;;
21330;SDS011;10824;51.632;4.950;2023-09-30T13:48:54;5.97;;;1.90;;
21330;SDS011;10824;51.632;4.950;2023-09-30T13:51:27;5.15;;;1.90;;
21330;SDS011;10824;51.632;4.950;2023-09-30T13:54:00;3.47;;;1.45;;
21330;SDS011;10824;51.632;4.950;2023-09-30T13:56:27;6.15;;;1.45;;
21330;SDS011;10824;51.632;4.950;2023-09-30T13:58:57;7.00;;;1.63;;
21330;SDS011;10824;51.632;4.950;2023-09-30T14:01:25;4.00;;;1.65;;
21330;SDS011;10824;51.632;4.950;2023-09-30T14:03:53;2.97;;;1.30;;
21330;SDS011;10824;51.632;4.950;2023-09-30T14:06:24;4.90;;;1.50;;
21330;SDS011;10824;51.632;4.950;2023-09-30T14:08:51;4.60;;;2.05;;
21330;SDS011;10824;51.632;4.950;2023-09-30T14:11:22;3.38;;;1.40;;
21330;SDS011;10824;51.632;4.950;2023-09-30T14:13:49;5.78;;;2.03;;
21330;SDS011;10824;51.632;4.950;2023-09-30T14:16:16;8.05;;;2.28;;
21330;SDS011;10824;51.632;4.950;2023-09-30T14:18:43;3.88;;;1.23;;
21330;SDS011;10824;51.632;4.950;2023-09-30T14:21:11;7.65;;;1.40;;
21330;SDS011;10824;51.632;4.950;2023-09-30T14:23:38;4.53;;;1.70;;
21330;SDS011;10824;51.632;4.950;2023-09-30T14:26:06;3.35;;;1.33;;
21330;SDS011;10824;51.632;4.950;2023-09-30T14:28:37;4.78;;;1.50;;
21330;SDS011;10824;51.632;4.950;2023-09-30T14:31:04;10.70;;;1.85;;
21330;SDS011;10824;51.632;4.950;2023-09-30T14:33:32;4.13;;;1.70;;
21330;SDS011;10824;51.632;4.950;2023-09-30T14:36:01;3.95;;;1.67;;
21330;SDS011;10824;51.632;4.950;2023-09-30T14:38:32;6.90;;;2.60;;
21330;SDS011;10824;51.632;4.950;2023-09-30T14:41:00;11.68;;;3.88;;
21330;SDS011;10824;51.632;4.950;2023-09-30T14:43:27;4.50;;;1.52;;
21330;SDS011;10824;51.632;4.950;2023-09-30T14:45:54;3.55;;;1.83;;
21330;SDS011;10824;51.632;4.950;2023-09-30T14:48:21;4.55;;;2.00;;
21330;SDS011;10824;51.632;4.950;2023-09-30T14:50:49;3.15;;;1.50;;
21330;SDS011;10824;51.632;4.950;2023-09-30T14:53:17;4.07;;;1.70;;
21330;SDS011;10824;51.632;4.950;2023-09-30T14:55:46;6.45;;;1.83;;
21330;SDS011;10824;51.632;4.950;2023-09-30T14:58:13;4.18;;;2.00;;
21330;SDS011;10824;51.632;4.950;2023-09-30T15:00:40;4.50;;;1.33;;
21330;SDS011;10824;51.632;4.950;2023-09-30T15:03:08;4.30;;;1.70;;
21330;SDS011;10824;51.632;4.950;2023-09-30T15:05:37;5.15;;;1.67;;
21330;SDS011;10824;51.632;4.950;2023-09-30T15:08:04;6.45;;;1.58;;
21330;SDS011;10824;51.632;4.950;2023-09-30T15:10:34;5.68;;;1.88;;
21330;SDS011;10824;51.632;4.950;2023-09-30T15:13:02;3.22;;;1.58;;
21330;SDS011;10824;51.632;4.950;2023-09-30T15:15:35;5.00;;;2.25;;
21330;SDS011;10824;51.632;4.950;2023-09-30T15:18:03;2.50;;;1.50;;